Terminal Aerodrome Forecast
Issued by NWS Portland, OR

Home | Current Version | Previous Version | Text Only | Print | Product List | Glossary On
Versions: 1 2 3 4 5 6 7 8 9 10 11 12 13 14 15 16 17 18 19 20 21 22 23 24 25 26 27 28 29 30 31 32 33 34 35 36 37
000
FTUS46 KPQR 012339
TAFEUG
TAF
KEUG 012339Z 0200/0224 16006KT P6SM OVC023
     FM020400 16005KT 4SM BR BKN020 OVC040
     FM020600 16003KT 1SM BR BKN003 OVC015
     FM021100 15008KT P6SM -RA SCT007 OVC012
     FM021600 17010G18KT 5SM RA BR BKN006 OVC010
     FM021900 18008KT P6SM -SHRA SCT006 BKN012=

USA.gov is the U.S. government's official web portal to all federal, state and local government web resources and services.